sensor_id;sensor_type;location;lat;lon;timestamp;P1;durP1;ratioP1;P2;durP2;ratioP2
67595;SDS011;54410;48.694;8.934;2023-04-23T00:02:07;2.63;;;1.73;;
67595;SDS011;54410;48.694;8.934;2023-04-23T00:04:36;3.10;;;2.22;;
67595;SDS011;54410;48.694;8.934;2023-04-23T00:07:02;3.15;;;1.80;;
67595;SDS011;54410;48.694;8.934;2023-04-23T00:09:31;3.28;;;2.10;;
67595;SDS011;54410;48.694;8.934;2023-04-23T00:11:58;2.33;;;1.70;;
67595;SDS011;54410;48.694;8.934;2023-04-23T00:14:25;5.07;;;2.05;;
67595;SDS011;54410;48.694;8.934;2023-04-23T00:16:51;3.97;;;2.20;;
67595;SDS011;54410;48.694;8.934;2023-04-23T00:19:17;3.78;;;2.00;;
67595;SDS011;54410;48.694;8.934;2023-04-23T00:21:43;4.68;;;2.33;;
67595;SDS011;54410;48.694;8.934;2023-04-23T00:24:09;4.15;;;1.90;;
67595;SDS011;54410;48.694;8.934;2023-04-23T00:26:35;3.70;;;1.90;;
67595;SDS011;54410;48.694;8.934;2023-04-23T00:29:01;2.00;;;1.83;;
67595;SDS011;54410;48.694;8.934;2023-04-23T00:31:27;2.28;;;2.08;;
67595;SDS011;54410;48.694;8.934;2023-04-23T00:33:53;3.47;;;1.80;;
67595;SDS011;54410;48.694;8.934;2023-04-23T00:36:20;3.22;;;1.70;;
67595;SDS011;54410;48.694;8.934;2023-04-23T00:38:46;2.25;;;1.83;;
67595;SDS011;54410;48.694;8.934;2023-04-23T00:41:12;2.97;;;1.80;;
67595;SDS011;54410;48.694;8.934;2023-04-23T00:43:38;3.53;;;1.88;;
67595;SDS011;54410;48.694;8.934;2023-04-23T00:46:04;2.53;;;1.60;;
67595;SDS011;54410;48.694;8.934;2023-04-23T00:48:31;1.85;;;1.73;;
67595;SDS011;54410;48.694;8.934;2023-04-23T00:50:58;2.20;;;1.80;;
67595;SDS011;54410;48.694;8.934;2023-04-23T00:53:25;3.85;;;2.15;;
67595;SDS011;54410;48.694;8.934;2023-04-23T00:55:51;4.05;;;2.10;;
67595;SDS011;54410;48.694;8.934;2023-04-23T00:58:17;2.90;;;1.75;;
67595;SDS011;54410;48.694;8.934;2023-04-23T01:00:44;2.10;;;1.90;;
67595;SDS011;54410;48.694;8.934;2023-04-23T01:03:12;2.65;;;1.80;;
67595;SDS011;54410;48.694;8.934;2023-04-23T01:05:39;2.60;;;1.77;;
67595;SDS011;54410;48.694;8.934;2023-04-23T01:08:06;4.25;;;1.90;;
67595;SDS011;54410;48.694;8.934;2023-04-23T01:10:34;2.47;;;1.95;;
67595;SDS011;54410;48.694;8.934;2023-04-23T01:13:00;2.92;;;2.03;;
67595;SDS011;54410;48.694;8.934;2023-04-23T01:15:26;2.55;;;2.00;;
67595;SDS011;54410;48.694;8.934;2023-04-23T01:17:52;2.20;;;1.77;;
67595;SDS011;54410;48.694;8.934;2023-04-23T01:20:18;3.53;;;2.10;;
67595;SDS011;54410;48.694;8.934;2023-04-23T01:22:44;3.85;;;2.00;;
67595;SDS011;54410;48.694;8.934;2023-04-23T01:25:10;3.28;;;2.00;;
67595;SDS011;54410;48.694;8.934;2023-04-23T01:27:36;4.43;;;2.05;;
67595;SDS011;54410;48.694;8.934;2023-04-23T01:30:02;2.72;;;2.30;;
67595;SDS011;54410;48.694;8.934;2023-04-23T01:32:30;2.95;;;2.40;;
67595;SDS011;54410;48.694;8.934;2023-04-23T01:34:56;2.80;;;2.25;;
67595;SDS011;54410;48.694;8.934;2023-04-23T01:37:22;2.50;;;2.08;;
67595;SDS011;54410;48.694;8.934;2023-04-23T01:39:48;2.53;;;2.20;;
67595;SDS011;54410;48.694;8.934;2023-04-23T01:42:14;2.97;;;2.00;;
67595;SDS011;54410;48.694;8.934;2023-04-23T01:44:40;3.00;;;2.10;;
67595;SDS011;54410;48.694;8.934;2023-04-23T01:47:06;4.38;;;2.10;;
67595;SDS011;54410;48.694;8.934;2023-04-23T01:49:32;2.88;;;2.22;;
67595;SDS011;54410;48.694;8.934;2023-04-23T01:51:58;1.92;;;1.83;;
67595;SDS011;54410;48.694;8.934;2023-04-23T01:54:24;2.85;;;2.22;;
67595;SDS011;54410;48.694;8.934;2023-04-23T01:56:50;2.30;;;2.00;;
67595;SDS011;54410;48.694;8.934;2023-04-23T01:59:19;4.03;;;2.15;;
67595;SDS011;54410;48.694;8.934;2023-04-23T02:01:46;2.00;;;1.67;;
67595;SDS011;54410;48.694;8.934;2023-04-23T02:04:12;2.92;;;1.80;;
67595;SDS011;54410;48.694;8.934;2023-04-23T02:06:39;2.42;;;1.80;;
67595;SDS011;54410;48.694;8.934;2023-04-23T02:09:06;2.10;;;1.80;;
67595;SDS011;54410;48.694;8.934;2023-04-23T02:11:32;3.63;;;2.00;;
67595;SDS011;54410;48.694;8.934;2023-04-23T02:13:57;3.65;;;1.90;;
67595;SDS011;54410;48.694;8.934;2023-04-23T02:16:23;2.85;;;1.80;;
67595;SDS011;54410;48.694;8.934;2023-04-23T02:18:50;2.28;;;1.83;;
67595;SDS011;54410;48.694;8.934;2023-04-23T02:21:16;3.50;;;1.70;;
67595;SDS011;54410;48.694;8.934;2023-04-23T02:23:42;1.65;;;1.55;;
67595;SDS011;54410;48.694;8.934;2023-04-23T02:26:08;2.47;;;1.90;;
67595;SDS011;54410;48.694;8.934;2023-04-23T02:28:34;2.70;;;1.80;;
67595;SDS011;54410;48.694;8.934;2023-04-23T02:31:00;2.85;;;1.80;;
67595;SDS011;54410;48.694;8.934;2023-04-23T02:33:25;1.50;;;1.40;;
67595;SDS011;54410;48.694;8.934;2023-04-23T02:35:51;4.13;;;1.75;;
67595;SDS011;54410;48.694;8.934;2023-04-23T02:38:17;1.70;;;1.42;;
67595;SDS011;54410;48.694;8.934;2023-04-23T02:40:42;4.28;;;1.30;;
67595;SDS011;54410;48.694;8.934;2023-04-23T02:43:08;1.60;;;1.35;;
67595;SDS011;54410;48.694;8.934;2023-04-23T02:45:34;1.73;;;1.50;;
67595;SDS011;54410;48.694;8.934;2023-04-23T02:48:00;2.40;;;1.40;;
67595;SDS011;54410;48.694;8.934;2023-04-23T02:50:26;2.08;;;1.30;;
67595;SDS011;54410;48.694;8.934;2023-04-23T02:52:52;2.53;;;1.30;;
67595;SDS011;54410;48.694;8.934;2023-04-23T02:55:18;1.48;;;1.38;;
67595;SDS011;54410;48.694;8.934;2023-04-23T02:57:44;1.30;;;1.20;;
67595;SDS011;54410;48.694;8.934;2023-04-23T03:00:10;1.40;;;1.30;;
67595;SDS011;54410;48.694;8.934;2023-04-23T03:02:36;1.48;;;1.38;;
67595;SDS011;54410;48.694;8.934;2023-04-23T03:05:03;1.92;;;1.60;;
67595;SDS011;54410;48.694;8.934;2023-04-23T03:07:30;1.75;;;1.20;;
67595;SDS011;54410;48.694;8.934;2023-04-23T03:09:55;1.02;;;0.95;;
67595;SDS011;54410;48.694;8.934;2023-04-23T03:12:21;2.17;;;1.25;;
67595;SDS011;54410;48.694;8.934;2023-04-23T03:14:47;1.67;;;1.15;;
67595;SDS011;54410;48.694;8.934;2023-04-23T03:17:13;1.92;;;1.08;;
67595;SDS011;54410;48.694;8.934;2023-04-23T03:19:39;1.27;;;1.17;;
67595;SDS011;54410;48.694;8.934;2023-04-23T03:22:05;1.23;;;1.13;;
67595;SDS011;54410;48.694;8.934;2023-04-23T03:24:34;1.23;;;1.10;;
67595;SDS011;54410;48.694;8.934;2023-04-23T03:27:00;2.35;;;1.08;;
67595;SDS011;54410;48.694;8.934;2023-04-23T03:29:25;1.38;;;1.20;;
67595;SDS011;54410;48.694;8.934;2023-04-23T03:31:52;1.20;;;1.08;;
67595;SDS011;54410;48.694;8.934;2023-04-23T03:34:18;1.27;;;1.17;;
67595;SDS011;54410;48.694;8.934;2023-04-23T03:36:43;1.20;;;1.10;;
67595;SDS011;54410;48.694;8.934;2023-04-23T03:39:12;1.85;;;1.17;;
67595;SDS011;54410;48.694;8.934;2023-04-23T03:41:38;1.35;;;1.10;;
67595;SDS011;54410;48.694;8.934;2023-04-23T03:44:04;1.27;;;1.17;;
67595;SDS011;54410;48.694;8.934;2023-04-23T03:46:30;1.10;;;1.00;;
67595;SDS011;54410;48.694;8.934;2023-04-23T03:48:56;1.42;;;1.02;;
67595;SDS011;54410;48.694;8.934;2023-04-23T03:51:22;1.55;;;1.10;;
67595;SDS011;54410;48.694;8.934;2023-04-23T03:53:48;1.95;;;1.08;;
67595;SDS011;54410;48.694;8.934;2023-04-23T03:56:14;1.20;;;0.82;;
67595;SDS011;54410;48.694;8.934;2023-04-23T03:58:40;2.17;;;0.90;;
67595;SDS011;54410;48.694;8.934;2023-04-23T04:01:06;1.15;;;1.00;;
67595;SDS011;54410;48.694;8.934;2023-04-23T04:03:32;1.10;;;1.00;;
67595;SDS011;54410;48.694;8.934;2023-04-23T04:05:58;1.35;;;1.02;;
67595;SDS011;54410;48.694;8.934;2023-04-23T04:08:24;1.40;;;1.30;;
67595;SDS011;54410;48.694;8.934;2023-04-23T04:10:51;1.15;;;1.05;;
67595;SDS011;54410;48.694;8.934;2023-04-23T04:13:17;1.10;;;1.10;;
67595;SDS011;54410;48.694;8.934;2023-04-23T04:15:43;1.30;;;1.20;;
67595;SDS011;54410;48.694;8.934;2023-04-23T04:18:09;1.17;;;1.10;;
67595;SDS011;54410;48.694;8.934;2023-04-23T04:20:35;1.48;;;1.17;;
67595;SDS011;54410;48.694;8.934;2023-04-23T04:23:01;1.73;;;1.20;;
67595;SDS011;54410;48.694;8.934;2023-04-23T04:25:27;1.70;;;1.60;;
67595;SDS011;54410;48.694;8.934;2023-04-23T04:27:54;1.98;;;1.50;;
67595;SDS011;54410;48.694;8.934;2023-04-23T04:30:21;2.05;;;1.73;;
67595;SDS011;54410;48.694;8.934;2023-04-23T04:32:47;1.58;;;1.45;;
67595;SDS011;54410;48.694;8.934;2023-04-23T04:35:14;1.75;;;1.50;;
67595;SDS011;54410;48.694;8.934;2023-04-23T04:37:40;1.67;;;1.52;;
67595;SDS011;54410;48.694;8.934;2023-04-23T04:40:08;1.95;;;1.63;;
67595;SDS011;54410;48.694;8.934;2023-04-23T04:42:35;1.60;;;1.50;;
67595;SDS011;54410;48.694;8.934;2023-04-23T04:45:01;2.70;;;2.03;;
67595;SDS011;54410;48.694;8.934;2023-04-23T04:47:28;2.00;;;1.80;;
67595;SDS011;54410;48.694;8.934;2023-04-23T04:49:55;1.73;;;1.63;;
67595;SDS011;54410;48.694;8.934;2023-04-23T04:52:22;1.65;;;1.42;;
67595;SDS011;54410;48.694;8.934;2023-04-23T04:54:48;1.85;;;1.40;;
67595;SDS011;54410;48.694;8.934;2023-04-23T04:57:14;2.20;;;1.33;;
67595;SDS011;54410;48.694;8.934;2023-04-23T04:59:40;2.45;;;1.48;;
67595;SDS011;54410;48.694;8.934;2023-04-23T05:02:06;1.50;;;1.27;;
67595;SDS011;54410;48.694;8.934;2023-04-23T05:04:32;1.40;;;1.17;;
67595;SDS011;54410;48.694;8.934;2023-04-23T05:06:58;1.40;;;1.30;;
67595;SDS011;54410;48.694;8.934;2023-04-23T05:09:24;1.20;;;1.10;;
67595;SDS011;54410;48.694;8.934;2023-04-23T05:11:50;0.90;;;0.90;;
67595;SDS011;54410;48.694;8.934;2023-04-23T05:14:16;1.05;;;1.00;;
67595;SDS011;54410;48.694;8.934;2023-04-23T05:16:42;1.15;;;1.00;;
67595;SDS011;54410;48.694;8.934;2023-04-23T05:19:08;0.88;;;0.80;;
67595;SDS011;54410;48.694;8.934;2023-04-23T05:21:34;0.82;;;0.82;;
67595;SDS011;54410;48.694;8.934;2023-04-23T05:24:00;1.02;;;0.80;;
67595;SDS011;54410;48.694;8.934;2023-04-23T05:26:26;1.45;;;0.80;;
67595;SDS011;54410;48.694;8.934;2023-04-23T05:28:52;0.82;;;0.80;;
67595;SDS011;54410;48.694;8.934;2023-04-23T05:31:18;0.90;;;0.90;;
67595;SDS011;54410;48.694;8.934;2023-04-23T05:33:44;1.40;;;0.98;;
67595;SDS011;54410;48.694;8.934;2023-04-23T05:36:11;0.77;;;0.77;;
67595;SDS011;54410;48.694;8.934;2023-04-23T05:38:37;1.33;;;0.95;;
67595;SDS011;54410;48.694;8.934;2023-04-23T05:41:02;0.80;;;0.80;;
67595;SDS011;54410;48.694;8.934;2023-04-23T05:43:29;0.70;;;0.70;;
67595;SDS011;54410;48.694;8.934;2023-04-23T05:45:55;0.70;;;0.70;;
67595;SDS011;54410;48.694;8.934;2023-04-23T05:48:21;0.77;;;0.77;;
67595;SDS011;54410;48.694;8.934;2023-04-23T05:50:47;0.70;;;0.63;;
67595;SDS011;54410;48.694;8.934;2023-04-23T05:53:13;0.68;;;0.68;;
67595;SDS011;54410;48.694;8.934;2023-04-23T05:55:39;0.68;;;0.65;;
67595;SDS011;54410;48.694;8.934;2023-04-23T05:58:05;0.68;;;0.68;;
67595;SDS011;54410;48.694;8.934;2023-04-23T06:00:31;0.70;;;0.70;;
67595;SDS011;54410;48.694;8.934;2023-04-23T06:02:59;0.45;;;0.45;;
67595;SDS011;54410;48.694;8.934;2023-04-23T06:05:25;0.50;;;0.50;;
67595;SDS011;54410;48.694;8.934;2023-04-23T06:07:51;0.55;;;0.50;;
67595;SDS011;54410;48.694;8.934;2023-04-23T06:10:17;0.43;;;0.43;;
67595;SDS011;54410;48.694;8.934;2023-04-23T06:12:43;0.52;;;0.35;;
67595;SDS011;54410;48.694;8.934;2023-04-23T06:15:09;0.52;;;0.52;;
67595;SDS011;54410;48.694;8.934;2023-04-23T06:17:35;0.40;;;0.40;;
67595;SDS011;54410;48.694;8.934;2023-04-23T06:20:01;0.55;;;0.40;;
67595;SDS011;54410;48.694;8.934;2023-04-23T06:22:29;0.40;;;0.40;;
67595;SDS011;54410;48.694;8.934;2023-04-23T06:24:55;0.68;;;0.40;;
67595;SDS011;54410;48.694;8.934;2023-04-23T06:27:21;1.25;;;0.50;;
67595;SDS011;54410;48.694;8.934;2023-04-23T06:29:47;0.47;;;0.47;;
67595;SDS011;54410;48.694;8.934;2023-04-23T06:32:13;0.55;;;0.50;;
67595;SDS011;54410;48.694;8.934;2023-04-23T06:34:39;0.40;;;0.40;;
67595;SDS011;54410;48.694;8.934;2023-04-23T06:37:05;0.52;;;0.45;;
67595;SDS011;54410;48.694;8.934;2023-04-23T06:39:32;0.80;;;0.30;;
67595;SDS011;54410;48.694;8.934;2023-04-23T06:41:58;0.70;;;0.50;;
67595;SDS011;54410;48.694;8.934;2023-04-23T06:44:24;0.50;;;0.50;;
67595;SDS011;54410;48.694;8.934;2023-04-23T06:46:50;1.23;;;0.30;;
67595;SDS011;54410;48.694;8.934;2023-04-23T06:49:16;0.22;;;0.22;;
67595;SDS011;54410;48.694;8.934;2023-04-23T06:51:42;0.65;;;0.40;;
67595;SDS011;54410;48.694;8.934;2023-04-23T06:54:08;0.73;;;0.50;;
67595;SDS011;54410;48.694;8.934;2023-04-23T06:56:34;0.85;;;0.43;;
67595;SDS011;54410;48.694;8.934;2023-04-23T06:59:00;0.35;;;0.32;;
67595;SDS011;54410;48.694;8.934;2023-04-23T07:01:26;0.40;;;0.38;;
67595;SDS011;54410;48.694;8.934;2023-04-23T07:03:52;0.50;;;0.50;;
67595;SDS011;54410;48.694;8.934;2023-04-23T07:06:18;0.55;;;0.50;;
67595;SDS011;54410;48.694;8.934;2023-04-23T07:08:44;0.60;;;0.60;;
67595;SDS011;54410;48.694;8.934;2023-04-23T07:11:10;0.77;;;0.60;;
67595;SDS011;54410;48.694;8.934;2023-04-23T07:13:37;0.50;;;0.40;;
67595;SDS011;54410;48.694;8.934;2023-04-23T07:16:03;0.60;;;0.40;;
67595;SDS011;54410;48.694;8.934;2023-04-23T07:18:29;0.35;;;0.35;;
67595;SDS011;54410;48.694;8.934;2023-04-23T07:20:55;0.80;;;0.55;;
67595;SDS011;54410;48.694;8.934;2023-04-23T07:23:21;0.40;;;0.40;;
67595;SDS011;54410;48.694;8.934;2023-04-23T07:25:47;0.32;;;0.32;;
67595;SDS011;54410;48.694;8.934;2023-04-23T07:28:13;0.43;;;0.30;;
67595;SDS011;54410;48.694;8.934;2023-04-23T07:30:39;1.65;;;0.70;;
67595;SDS011;54410;48.694;8.934;2023-04-23T07:33:05;2.05;;;0.60;;
67595;SDS011;54410;48.694;8.934;2023-04-23T07:35:31;0.90;;;0.50;;
67595;SDS011;54410;48.694;8.934;2023-04-23T07:37:57;0.47;;;0.47;;
67595;SDS011;54410;48.694;8.934;2023-04-23T07:40:22;0.43;;;0.43;;
67595;SDS011;54410;48.694;8.934;2023-04-23T07:42:49;2.60;;;0.60;;
67595;SDS011;54410;48.694;8.934;2023-04-23T07:45:15;0.45;;;0.38;;
67595;SDS011;54410;48.694;8.934;2023-04-23T07:47:41;0.73;;;0.57;;
67595;SDS011;54410;48.694;8.934;2023-04-23T07:50:07;0.60;;;0.40;;
67595;SDS011;54410;48.694;8.934;2023-04-23T07:52:33;0.75;;;0.50;;
67595;SDS011;54410;48.694;8.934;2023-04-23T07:55:00;1.30;;;0.40;;
67595;SDS011;54410;48.694;8.934;2023-04-23T07:57:26;0.60;;;0.50;;
67595;SDS011;54410;48.694;8.934;2023-04-23T07:59:52;0.65;;;0.50;;
67595;SDS011;54410;48.694;8.934;2023-04-23T08:02:18;0.88;;;0.57;;
67595;SDS011;54410;48.694;8.934;2023-04-23T08:04:47;0.90;;;0.65;;
67595;SDS011;54410;48.694;8.934;2023-04-23T08:07:13;0.93;;;0.40;;
67595;SDS011;54410;48.694;8.934;2023-04-23T08:09:39;0.50;;;0.50;;
67595;SDS011;54410;48.694;8.934;2023-04-23T08:12:05;0.50;;;0.43;;
67595;SDS011;54410;48.694;8.934;2023-04-23T08:14:31;0.95;;;0.40;;
67595;SDS011;54410;48.694;8.934;2023-04-23T08:16:57;0.50;;;0.40;;
67595;SDS011;54410;48.694;8.934;2023-04-23T08:19:23;0.50;;;0.40;;
67595;SDS011;54410;48.694;8.934;2023-04-23T08:21:50;0.40;;;0.40;;
67595;SDS011;54410;48.694;8.934;2023-04-23T08:24:17;0.80;;;0.60;;
67595;SDS011;54410;48.694;8.934;2023-04-23T08:26:43;0.40;;;0.40;;
67595;SDS011;54410;48.694;8.934;2023-04-23T08:29:09;0.55;;;0.43;;
67595;SDS011;54410;48.694;8.934;2023-04-23T08:31:35;0.93;;;0.63;;
67595;SDS011;54410;48.694;8.934;2023-04-23T08:34:01;0.52;;;0.52;;
67595;SDS011;54410;48.694;8.934;2023-04-23T08:36:27;0.50;;;0.50;;
67595;SDS011;54410;48.694;8.934;2023-04-23T08:38:53;1.42;;;0.60;;
67595;SDS011;54410;48.694;8.934;2023-04-23T08:41:20;1.30;;;0.70;;
67595;SDS011;54410;48.694;8.934;2023-04-23T08:43:52;0.75;;;0.60;;
67595;SDS011;54410;48.694;8.934;2023-04-23T08:46:19;2.50;;;0.90;;
67595;SDS011;54410;48.694;8.934;2023-04-23T08:48:46;0.68;;;0.57;;
67595;SDS011;54410;48.694;8.934;2023-04-23T08:51:15;0.80;;;0.80;;
67595;SDS011;54410;48.694;8.934;2023-04-23T08:53:43;0.80;;;0.70;;
67595;SDS011;54410;48.694;8.934;2023-04-23T08:56:09;0.55;;;0.55;;
67595;SDS011;54410;48.694;8.934;2023-04-23T08:58:37;1.27;;;0.52;;
67595;SDS011;54410;48.694;8.934;2023-04-23T09:01:04;1.10;;;0.68;;
67595;SDS011;54410;48.694;8.934;2023-04-23T09:03:31;1.98;;;0.80;;
67595;SDS011;54410;48.694;8.934;2023-04-23T09:05:58;0.80;;;0.60;;
67595;SDS011;54410;48.694;8.934;2023-04-23T09:08:23;0.57;;;0.57;;
67595;SDS011;54410;48.694;8.934;2023-04-23T09:10:49;1.27;;;0.68;;
67595;SDS011;54410;48.694;8.934;2023-04-23T09:13:16;1.05;;;0.55;;
67595;SDS011;54410;48.694;8.934;2023-04-23T09:15:42;0.75;;;0.60;;
67595;SDS011;54410;48.694;8.934;2023-04-23T09:18:09;0.88;;;0.60;;
67595;SDS011;54410;48.694;8.934;2023-04-23T09:20:34;0.75;;;0.70;;
67595;SDS011;54410;48.694;8.934;2023-04-23T09:23:05;0.80;;;0.80;;
67595;SDS011;54410;48.694;8.934;2023-04-23T09:25:32;0.77;;;0.68;;
67595;SDS011;54410;48.694;8.934;2023-04-23T09:27:58;0.80;;;0.80;;
67595;SDS011;54410;48.694;8.934;2023-04-23T09:30:27;0.70;;;0.50;;
67595;SDS011;54410;48.694;8.934;2023-04-23T09:32:54;1.95;;;1.33;;
67595;SDS011;54410;48.694;8.934;2023-04-23T09:35:20;1.17;;;1.00;;
67595;SDS011;54410;48.694;8.934;2023-04-23T09:37:47;0.60;;;0.60;;
67595;SDS011;54410;48.694;8.934;2023-04-23T09:40:14;1.40;;;0.82;;
67595;SDS011;54410;48.694;8.934;2023-04-23T09:42:40;0.63;;;0.63;;
67595;SDS011;54410;48.694;8.934;2023-04-23T09:45:11;0.60;;;0.60;;
67595;SDS011;54410;48.694;8.934;2023-04-23T09:47:38;1.65;;;0.60;;
67595;SDS011;54410;48.694;8.934;2023-04-23T09:50:04;1.38;;;0.80;;
67595;SDS011;54410;48.694;8.934;2023-04-23T09:52:31;1.48;;;0.80;;
67595;SDS011;54410;48.694;8.934;2023-04-23T09:54:59;0.73;;;0.60;;
67595;SDS011;54410;48.694;8.934;2023-04-23T09:57:26;1.48;;;0.70;;
67595;SDS011;54410;48.694;8.934;2023-04-23T09:59:55;1.20;;;1.10;;
67595;SDS011;54410;48.694;8.934;2023-04-23T10:02:31;0.93;;;0.90;;
67595;SDS011;54410;48.694;8.934;2023-04-23T10:04:57;0.80;;;0.80;;
67595;SDS011;54410;48.694;8.934;2023-04-23T10:07:23;0.80;;;0.80;;
67595;SDS011;54410;48.694;8.934;2023-04-23T10:09:49;2.28;;;0.70;;
67595;SDS011;54410;48.694;8.934;2023-04-23T10:12:15;0.70;;;0.68;;
67595;SDS011;54410;48.694;8.934;2023-04-23T10:14:41;0.90;;;0.82;;
67595;SDS011;54410;48.694;8.934;2023-04-23T10:17:07;1.05;;;0.80;;
67595;SDS011;54410;48.694;8.934;2023-04-23T10:19:33;0.75;;;0.70;;
67595;SDS011;54410;48.694;8.934;2023-04-23T10:22:03;0.70;;;0.70;;
67595;SDS011;54410;48.694;8.934;2023-04-23T10:24:33;0.80;;;0.55;;
67595;SDS011;54410;48.694;8.934;2023-04-23T10:27:00;0.80;;;0.60;;
67595;SDS011;54410;48.694;8.934;2023-04-23T10:29:31;1.83;;;1.10;;
67595;SDS011;54410;48.694;8.934;2023-04-23T10:31:58;0.88;;;0.80;;
67595;SDS011;54410;48.694;8.934;2023-04-23T10:34:25;0.60;;;0.60;;
67595;SDS011;54410;48.694;8.934;2023-04-23T10:36:51;0.57;;;0.55;;
67595;SDS011;54410;48.694;8.934;2023-04-23T10:39:21;0.50;;;0.50;;
67595;SDS011;54410;48.694;8.934;2023-04-23T10:41:48;0.75;;;0.60;;
67595;SDS011;54410;48.694;8.934;2023-04-23T10:44:14;0.90;;;0.90;;
67595;SDS011;54410;48.694;8.934;2023-04-23T10:46:49;2.05;;;0.70;;
67595;SDS011;54410;48.694;8.934;2023-04-23T10:49:21;0.50;;;0.50;;
67595;SDS011;54410;48.694;8.934;2023-04-23T10:51:48;1.85;;;1.60;;
67595;SDS011;54410;48.694;8.934;2023-04-23T10:54:14;1.20;;;1.10;;
67595;SDS011;54410;48.694;8.934;2023-04-23T10:56:40;0.65;;;0.65;;
67595;SDS011;54410;48.694;8.934;2023-04-23T10:59:07;0.80;;;0.80;;
67595;SDS011;54410;48.694;8.934;2023-04-23T11:01:49;1.15;;;0.50;;
67595;SDS011;54410;48.694;8.934;2023-04-23T11:04:18;0.60;;;0.60;;
67595;SDS011;54410;48.694;8.934;2023-04-23T11:06:49;0.80;;;0.63;;
67595;SDS011;54410;48.694;8.934;2023-04-23T11:09:29;0.50;;;0.50;;
67595;SDS011;54410;48.694;8.934;2023-04-23T11:11:55;0.60;;;0.50;;
67595;SDS011;54410;48.694;8.934;2023-04-23T11:17:05;1.58;;;0.85;;
67595;SDS011;54410;48.694;8.934;2023-04-23T11:19:35;1.80;;;0.60;;
67595;SDS011;54410;48.694;8.934;2023-04-23T11:22:05;0.40;;;0.40;;
67595;SDS011;54410;48.694;8.934;2023-04-23T11:24:33;0.52;;;0.45;;
67595;SDS011;54410;48.694;8.934;2023-04-23T11:27:01;2.45;;;0.73;;
67595;SDS011;54410;48.694;8.934;2023-04-23T11:29:29;0.90;;;0.52;;
67595;SDS011;54410;48.694;8.934;2023-04-23T11:31:55;0.50;;;0.50;;
67595;SDS011;54410;48.694;8.934;2023-04-23T11:34:21;1.15;;;0.50;;
67595;SDS011;54410;48.694;8.934;2023-04-23T11:36:50;0.60;;;0.60;;
67595;SDS011;54410;48.694;8.934;2023-04-23T11:39:19;0.82;;;0.52;;
67595;SDS011;54410;48.694;8.934;2023-04-23T11:41:45;1.85;;;0.73;;
67595;SDS011;54410;48.694;8.934;2023-04-23T11:44:11;0.55;;;0.50;;
67595;SDS011;54410;48.694;8.934;2023-04-23T11:46:37;1.45;;;0.60;;
67595;SDS011;54410;48.694;8.934;2023-04-23T11:49:03;0.60;;;0.60;;
67595;SDS011;54410;48.694;8.934;2023-04-23T11:51:30;0.77;;;0.57;;
67595;SDS011;54410;48.694;8.934;2023-04-23T11:54:03;0.63;;;0.55;;
67595;SDS011;54410;48.694;8.934;2023-04-23T11:56:32;0.50;;;0.50;;
67595;SDS011;54410;48.694;8.934;2023-04-23T11:59:02;0.80;;;0.80;;
67595;SDS011;54410;48.694;8.934;2023-04-23T12:01:39;0.90;;;0.68;;
67595;SDS011;54410;48.694;8.934;2023-04-23T12:04:24;0.70;;;0.63;;
67595;SDS011;54410;48.694;8.934;2023-04-23T12:06:51;0.60;;;0.60;;
67595;SDS011;54410;48.694;8.934;2023-04-23T12:09:19;0.65;;;0.63;;
67595;SDS011;54410;48.694;8.934;2023-04-23T12:11:45;0.80;;;0.60;;
67595;SDS011;54410;48.694;8.934;2023-04-23T12:14:12;0.60;;;0.60;;
67595;SDS011;54410;48.694;8.934;2023-04-23T12:16:42;0.80;;;0.60;;
67595;SDS011;54410;48.694;8.934;2023-04-23T12:19:18;0.70;;;0.57;;
67595;SDS011;54410;48.694;8.934;2023-04-23T12:24:14;0.77;;;0.68;;
67595;SDS011;54410;48.694;8.934;2023-04-23T12:26:40;1.00;;;0.63;;
67595;SDS011;54410;48.694;8.934;2023-04-23T12:29:07;0.88;;;0.50;;
67595;SDS011;54410;48.694;8.934;2023-04-23T12:31:33;0.75;;;0.60;;
67595;SDS011;54410;48.694;8.934;2023-04-23T12:34:03;0.57;;;0.57;;
67595;SDS011;54410;48.694;8.934;2023-04-23T12:36:30;0.50;;;0.50;;
67595;SDS011;54410;48.694;8.934;2023-04-23T12:41:40;0.60;;;0.60;;
67595;SDS011;54410;48.694;8.934;2023-04-23T12:44:06;1.27;;;0.65;;
67595;SDS011;54410;48.694;8.934;2023-04-23T12:46:32;1.88;;;0.60;;
67595;SDS011;54410;48.694;8.934;2023-04-23T12:48:58;0.85;;;0.52;;
67595;SDS011;54410;48.694;8.934;2023-04-23T12:51:24;0.50;;;0.50;;
67595;SDS011;54410;48.694;8.934;2023-04-23T12:53:50;0.70;;;0.60;;
67595;SDS011;54410;48.694;8.934;2023-04-23T12:56:16;0.55;;;0.55;;
67595;SDS011;54410;48.694;8.934;2023-04-23T12:58:42;0.60;;;0.60;;
67595;SDS011;54410;48.694;8.934;2023-04-23T13:01:08;0.85;;;0.60;;
67595;SDS011;54410;48.694;8.934;2023-04-23T13:03:36;0.70;;;0.70;;
67595;SDS011;54410;48.694;8.934;2023-04-23T13:06:02;0.55;;;0.50;;
67595;SDS011;54410;48.694;8.934;2023-04-23T13:08:28;1.10;;;0.75;;
67595;SDS011;54410;48.694;8.934;2023-04-23T13:10:55;0.82;;;0.60;;
67595;SDS011;54410;48.694;8.934;2023-04-23T13:13:21;0.95;;;0.60;;
67595;SDS011;54410;48.694;8.934;2023-04-23T13:15:47;0.60;;;0.45;;
67595;SDS011;54410;48.694;8.934;2023-04-23T13:18:13;0.63;;;0.63;;
67595;SDS011;54410;48.694;8.934;2023-04-23T13:20:39;0.60;;;0.60;;
67595;SDS011;54410;48.694;8.934;2023-04-23T13:23:05;1.08;;;0.70;;
67595;SDS011;54410;48.694;8.934;2023-04-23T13:25:32;0.80;;;0.60;;
67595;SDS011;54410;48.694;8.934;2023-04-23T13:27:59;0.43;;;0.43;;
67595;SDS011;54410;48.694;8.934;2023-04-23T13:30:24;0.90;;;0.60;;
67595;SDS011;54410;48.694;8.934;2023-04-23T13:32:50;1.15;;;0.52;;
67595;SDS011;54410;48.694;8.934;2023-04-23T13:35:17;1.30;;;0.50;;
67595;SDS011;54410;48.694;8.934;2023-04-23T13:37:43;0.38;;;0.38;;
67595;SDS011;54410;48.694;8.934;2023-04-23T13:40:09;0.55;;;0.32;;
67595;SDS011;54410;48.694;8.934;2023-04-23T13:42:35;0.95;;;0.45;;
67595;SDS011;54410;48.694;8.934;2023-04-23T13:45:01;0.80;;;0.50;;
67595;SDS011;54410;48.694;8.934;2023-04-23T13:47:30;0.85;;;0.70;;
67595;SDS011;54410;48.694;8.934;2023-04-23T13:49:57;0.70;;;0.52;;
67595;SDS011;54410;48.694;8.934;2023-04-23T13:52:23;0.50;;;0.50;;
67595;SDS011;54410;48.694;8.934;2023-04-23T13:54:49;1.02;;;0.60;;
67595;SDS011;54410;48.694;8.934;2023-04-23T13:57:16;2.35;;;0.70;;
67595;SDS011;54410;48.694;8.934;2023-04-23T13:59:42;0.45;;;0.45;;
67595;SDS011;54410;48.694;8.934;2023-04-23T14:02:08;3.15;;;0.40;;
67595;SDS011;54410;48.694;8.934;2023-04-23T14:04:34;0.73;;;0.73;;
67595;SDS011;54410;48.694;8.934;2023-04-23T14:07:00;2.83;;;0.45;;
67595;SDS011;54410;48.694;8.934;2023-04-23T14:09:25;1.13;;;0.50;;
67595;SDS011;54410;48.694;8.934;2023-04-23T14:11:53;0.77;;;0.57;;
67595;SDS011;54410;48.694;8.934;2023-04-23T14:14:20;0.40;;;0.40;;
67595;SDS011;54410;48.694;8.934;2023-04-23T14:16:46;0.50;;;0.50;;
67595;SDS011;54410;48.694;8.934;2023-04-23T14:19:12;1.15;;;0.60;;
67595;SDS011;54410;48.694;8.934;2023-04-23T14:21:38;0.60;;;0.40;;
67595;SDS011;54410;48.694;8.934;2023-04-23T14:24:08;2.17;;;0.80;;
67595;SDS011;54410;48.694;8.934;2023-04-23T14:26:46;0.50;;;0.50;;
67595;SDS011;54410;48.694;8.934;2023-04-23T14:29:23;0.85;;;0.47;;
67595;SDS011;54410;48.694;8.934;2023-04-23T14:31:49;0.40;;;0.40;;
67595;SDS011;54410;48.694;8.934;2023-04-23T14:34:15;0.95;;;0.60;;
67595;SDS011;54410;48.694;8.934;2023-04-23T14:36:41;1.35;;;0.50;;
67595;SDS011;54410;48.694;8.934;2023-04-23T14:39:08;0.63;;;0.50;;
67595;SDS011;54410;48.694;8.934;2023-04-23T14:41:34;0.40;;;0.40;;
67595;SDS011;54410;48.694;8.934;2023-04-23T14:44:01;2.45;;;0.63;;
67595;SDS011;54410;48.694;8.934;2023-04-23T14:46:27;1.15;;;0.60;;
67595;SDS011;54410;48.694;8.934;2023-04-23T14:48:53;0.68;;;0.52;;
67595;SDS011;54410;48.694;8.934;2023-04-23T14:51:19;0.93;;;0.50;;
67595;SDS011;54410;48.694;8.934;2023-04-23T14:53:46;0.88;;;0.70;;